sensor_id;sensor_type;location;lat;lon;timestamp;pressure;altitude;pressure_sealevel;temperature;humidity
77323;BME280;66384;51.052;9.850;2023-02-13T00:01:37;100729.77;;;6.22;76.38
77323;BME280;66384;51.052;9.850;2023-02-13T00:04:06;100728.41;;;6.22;76.52
77323;BME280;66384;51.052;9.850;2023-02-13T00:06:36;100724.36;;;6.22;76.52
77323;BME280;66384;51.052;9.850;2023-02-13T00:09:05;100726.64;;;6.23;76.44
77323;BME280;66384;51.052;9.850;2023-02-13T00:11:37;100723.20;;;6.25;76.47
77323;BME280;66384;51.052;9.850;2023-02-13T00:14:07;100723.17;;;6.25;76.37
77323;BME280;66384;51.052;9.850;2023-02-13T00:16:36;100722.44;;;6.26;76.44
77323;BME280;66384;51.052;9.850;2023-02-13T00:19:05;100723.36;;;6.27;76.39
77323;BME280;66384;51.052;9.850;2023-02-13T00:21:34;100722.88;;;6.27;76.13
77323;BME280;66384;51.052;9.850;2023-02-13T00:24:04;100723.30;;;6.27;76.00
77323;BME280;66384;51.052;9.850;2023-02-13T00:26:34;100724.23;;;6.27;76.15
77323;BME280;66384;51.052;9.850;2023-02-13T00:29:03;100722.38;;;6.28;76.15
77323;BME280;66384;51.052;9.850;2023-02-13T00:31:32;100722.52;;;6.27;76.04
77323;BME280;66384;51.052;9.850;2023-02-13T00:34:02;100720.42;;;6.25;75.95
77323;BME280;66384;51.052;9.850;2023-02-13T00:36:31;100723.45;;;6.22;75.89
77323;BME280;66384;51.052;9.850;2023-02-13T00:39:00;100721.30;;;6.18;75.71
77323;BME280;66384;51.052;9.850;2023-02-13T00:41:30;100725.91;;;6.16;75.83
77323;BME280;66384;51.052;9.850;2023-02-13T00:43:59;100725.34;;;6.13;75.87
77323;BME280;66384;51.052;9.850;2023-02-13T00:46:28;100730.30;;;6.11;75.56
77323;BME280;66384;51.052;9.850;2023-02-13T00:48:58;100726.70;;;6.08;75.66
77323;BME280;66384;51.052;9.850;2023-02-13T00:51:27;100730.02;;;6.07;75.50
77323;BME280;66384;51.052;9.850;2023-02-13T00:53:56;100727.42;;;6.07;75.68
77323;BME280;66384;51.052;9.850;2023-02-13T00:56:25;100725.62;;;6.08;75.57
77323;BME280;66384;51.052;9.850;2023-02-13T00:58:54;100727.86;;;6.08;75.80
77323;BME280;66384;51.052;9.850;2023-02-13T01:01:24;100726.25;;;6.09;75.67
77323;BME280;66384;51.052;9.850;2023-02-13T01:03:53;100729.08;;;6.10;75.63
77323;BME280;66384;51.052;9.850;2023-02-13T01:06:22;100729.23;;;6.10;75.55
77323;BME280;66384;51.052;9.850;2023-02-13T01:08:51;100728.45;;;6.07;75.63
77323;BME280;66384;51.052;9.850;2023-02-13T01:11:21;100728.11;;;6.04;75.60
77323;BME280;66384;51.052;9.850;2023-02-13T01:13:50;100722.11;;;6.02;75.60
77323;BME280;66384;51.052;9.850;2023-02-13T01:16:19;100718.77;;;6.01;75.64
77323;BME280;66384;51.052;9.850;2023-02-13T01:18:48;100719.57;;;6.02;75.66
77323;BME280;66384;51.052;9.850;2023-02-13T01:21:19;100712.77;;;6.03;75.74
77323;BME280;66384;51.052;9.850;2023-02-13T01:23:50;100713.87;;;6.04;75.74
77323;BME280;66384;51.052;9.850;2023-02-13T01:26:21;100715.55;;;6.06;75.71
77323;BME280;66384;51.052;9.850;2023-02-13T01:28:53;100718.91;;;6.05;75.58
77323;BME280;66384;51.052;9.850;2023-02-13T01:31:25;100716.33;;;6.03;75.74
77323;BME280;66384;51.052;9.850;2023-02-13T01:33:56;100714.83;;;6.03;75.86
77323;BME280;66384;51.052;9.850;2023-02-13T01:36:26;100720.02;;;6.04;75.86
77323;BME280;66384;51.052;9.850;2023-02-13T01:38:56;100718.69;;;6.04;75.73
77323;BME280;66384;51.052;9.850;2023-02-13T01:41:26;100720.86;;;6.06;75.78
77323;BME280;66384;51.052;9.850;2023-02-13T01:43:58;100718.70;;;6.06;75.79
77323;BME280;66384;51.052;9.850;2023-02-13T01:46:30;100715.55;;;6.08;75.80
77323;BME280;66384;51.052;9.850;2023-02-13T01:49:04;100716.68;;;6.09;75.73
77323;BME280;66384;51.052;9.850;2023-02-13T01:51:36;100715.30;;;6.09;75.70
77323;BME280;66384;51.052;9.850;2023-02-13T01:54:09;100716.77;;;6.08;75.42
77323;BME280;66384;51.052;9.850;2023-02-13T01:56:44;100714.80;;;6.02;75.33
77323;BME280;66384;51.052;9.850;2023-02-13T01:59:16;100710.65;;;6.00;75.42
77323;BME280;66384;51.052;9.850;2023-02-13T02:01:47;100713.04;;;5.95;75.44
77323;BME280;66384;51.052;9.850;2023-02-13T02:04:19;100713.27;;;5.94;75.68
77323;BME280;66384;51.052;9.850;2023-02-13T02:06:52;100713.77;;;5.93;75.60
77323;BME280;66384;51.052;9.850;2023-02-13T02:09:26;100708.89;;;5.94;75.66
77323;BME280;66384;51.052;9.850;2023-02-13T02:12:02;100706.54;;;5.91;75.68
77323;BME280;66384;51.052;9.850;2023-02-13T02:14:32;100714.60;;;5.91;75.74
77323;BME280;66384;51.052;9.850;2023-02-13T02:17:02;100712.33;;;5.91;75.79
77323;BME280;66384;51.052;9.850;2023-02-13T02:19:35;100708.80;;;5.91;75.81
77323;BME280;66384;51.052;9.850;2023-02-13T02:25:48;100711.67;;;5.86;75.74
77323;BME280;66384;51.052;9.850;2023-02-13T02:28:47;100711.92;;;5.87;75.91
77323;BME280;66384;51.052;9.850;2023-02-13T02:31:46;100713.14;;;5.88;75.92
77323;BME280;66384;51.052;9.850;2023-02-13T02:34:25;100710.67;;;5.87;76.04
77323;BME280;66384;51.052;9.850;2023-02-13T02:37:07;100708.20;;;5.86;76.00
77323;BME280;66384;51.052;9.850;2023-02-13T02:39:47;100708.29;;;5.85;76.14
77323;BME280;66384;51.052;9.850;2023-02-13T02:42:29;100702.58;;;5.84;76.18
77323;BME280;66384;51.052;9.850;2023-02-13T02:45:06;100704.02;;;5.82;76.13
77323;BME280;66384;51.052;9.850;2023-02-13T02:47:43;100702.59;;;5.82;76.13
77323;BME280;66384;51.052;9.850;2023-02-13T02:50:38;100703.42;;;5.81;76.22
77323;BME280;66384;51.052;9.850;2023-02-13T02:53:17;100699.02;;;5.82;76.21
77323;BME280;66384;51.052;9.850;2023-02-13T02:55:53;100698.77;;;5.83;76.13
77323;BME280;66384;51.052;9.850;2023-02-13T02:58:27;100694.77;;;5.84;76.27
77323;BME280;66384;51.052;9.850;2023-02-13T03:01:19;100693.47;;;5.85;76.33
77323;BME280;66384;51.052;9.850;2023-02-13T03:04:15;100695.23;;;5.86;76.18
77323;BME280;66384;51.052;9.850;2023-02-13T03:07:06;100691.48;;;5.86;76.21
77323;BME280;66384;51.052;9.850;2023-02-13T03:09:40;100692.08;;;5.87;76.23
77323;BME280;66384;51.052;9.850;2023-02-13T03:12:32;100692.61;;;5.87;76.08
77323;BME280;66384;51.052;9.850;2023-02-13T03:15:21;100691.88;;;5.84;76.21
77323;BME280;66384;51.052;9.850;2023-02-13T03:17:51;100690.84;;;5.84;76.31
77323;BME280;66384;51.052;9.850;2023-02-13T03:20:44;100688.58;;;5.86;76.29
77323;BME280;66384;51.052;9.850;2023-02-13T03:23:41;100683.46;;;5.88;76.37
77323;BME280;66384;51.052;9.850;2023-02-13T03:26:34;100682.06;;;5.90;76.26
77323;BME280;66384;51.052;9.850;2023-02-13T03:29:23;100680.84;;;5.89;76.16
77323;BME280;66384;51.052;9.850;2023-02-13T03:32:16;100687.85;;;5.90;76.14
77323;BME280;66384;51.052;9.850;2023-02-13T03:34:54;100683.48;;;5.88;76.14
77323;BME280;66384;51.052;9.850;2023-02-13T03:37:50;100683.48;;;5.88;76.31
77323;BME280;66384;51.052;9.850;2023-02-13T03:40:27;100680.23;;;5.88;76.12
77323;BME280;66384;51.052;9.850;2023-02-13T03:43:03;100677.59;;;5.87;76.16
77323;BME280;66384;51.052;9.850;2023-02-13T03:45:37;100678.95;;;5.87;76.31
77323;BME280;66384;51.052;9.850;2023-02-13T03:48:23;100683.02;;;5.87;76.40
77323;BME280;66384;51.052;9.850;2023-02-13T03:51:16;100684.55;;;5.87;76.23
77323;BME280;66384;51.052;9.850;2023-02-13T03:53:50;100691.02;;;5.84;76.04
77323;BME280;66384;51.052;9.850;2023-02-13T03:56:23;100693.76;;;5.80;76.13
77323;BME280;66384;51.052;9.850;2023-02-13T03:59:22;100684.64;;;5.77;76.19
77323;BME280;66384;51.052;9.850;2023-02-13T04:02:02;100687.66;;;5.76;76.31
77323;BME280;66384;51.052;9.850;2023-02-13T04:04:41;100690.71;;;5.76;76.28
77323;BME280;66384;51.052;9.850;2023-02-13T04:07:15;100687.17;;;5.74;76.33
77323;BME280;66384;51.052;9.850;2023-02-13T04:09:59;100686.82;;;5.74;76.38
77323;BME280;66384;51.052;9.850;2023-02-13T04:12:36;100686.05;;;5.73;76.51
77323;BME280;66384;51.052;9.850;2023-02-13T04:15:10;100683.14;;;5.71;76.58
77323;BME280;66384;51.052;9.850;2023-02-13T04:17:46;100686.11;;;5.72;76.59
77323;BME280;66384;51.052;9.850;2023-02-13T04:20:17;100692.00;;;5.75;76.65
77323;BME280;66384;51.052;9.850;2023-02-13T04:22:47;100693.44;;;5.78;76.66
77323;BME280;66384;51.052;9.850;2023-02-13T04:25:17;100696.08;;;5.81;76.64
77323;BME280;66384;51.052;9.850;2023-02-13T04:27:48;100692.84;;;5.84;76.54
77323;BME280;66384;51.052;9.850;2023-02-13T04:30:18;100691.86;;;5.84;76.51
77323;BME280;66384;51.052;9.850;2023-02-13T04:32:47;100688.89;;;5.85;76.53
77323;BME280;66384;51.052;9.850;2023-02-13T04:35:16;100686.55;;;5.86;76.65
77323;BME280;66384;51.052;9.850;2023-02-13T04:37:46;100687.48;;;5.87;76.48
77323;BME280;66384;51.052;9.850;2023-02-13T04:40:15;100684.58;;;5.87;76.65
77323;BME280;66384;51.052;9.850;2023-02-13T04:42:45;100683.13;;;5.86;76.51
77323;BME280;66384;51.052;9.850;2023-02-13T04:45:15;100682.73;;;5.85;76.36
77323;BME280;66384;51.052;9.850;2023-02-13T04:47:50;100677.77;;;5.81;76.40
77323;BME280;66384;51.052;9.850;2023-02-13T04:50:20;100678.30;;;5.76;76.44
77323;BME280;66384;51.052;9.850;2023-02-13T04:52:50;100675.94;;;5.73;76.59
77323;BME280;66384;51.052;9.850;2023-02-13T04:55:20;100673.50;;;5.72;76.66
77323;BME280;66384;51.052;9.850;2023-02-13T04:57:52;100673.69;;;5.75;76.69
77323;BME280;66384;51.052;9.850;2023-02-13T05:00:23;100671.77;;;5.78;76.88
77323;BME280;66384;51.052;9.850;2023-02-13T05:02:53;100675.29;;;5.79;76.77
77323;BME280;66384;51.052;9.850;2023-02-13T05:05:22;100671.30;;;5.79;76.70
77323;BME280;66384;51.052;9.850;2023-02-13T05:07:51;100670.73;;;5.78;76.62
77323;BME280;66384;51.052;9.850;2023-02-13T05:10:21;100668.03;;;5.79;76.84
77323;BME280;66384;51.052;9.850;2023-02-13T05:12:50;100672.65;;;5.81;76.82
77323;BME280;66384;51.052;9.850;2023-02-13T05:15:19;100674.29;;;5.84;76.81
77323;BME280;66384;51.052;9.850;2023-02-13T05:17:50;100674.81;;;5.87;76.76
77323;BME280;66384;51.052;9.850;2023-02-13T05:20:19;100673.49;;;5.87;76.68
77323;BME280;66384;51.052;9.850;2023-02-13T05:22:51;100671.70;;;5.88;76.72
77323;BME280;66384;51.052;9.850;2023-02-13T05:25:39;100672.84;;;5.90;76.66
77323;BME280;66384;51.052;9.850;2023-02-13T05:28:09;100676.45;;;5.90;76.72
77323;BME280;66384;51.052;9.850;2023-02-13T05:30:52;100679.17;;;5.90;76.68
77323;BME280;66384;51.052;9.850;2023-02-13T05:33:22;100677.67;;;5.90;76.69
77323;BME280;66384;51.052;9.850;2023-02-13T05:35:51;100680.17;;;5.90;76.64
77323;BME280;66384;51.052;9.850;2023-02-13T05:38:20;100681.20;;;5.88;76.50
77323;BME280;66384;51.052;9.850;2023-02-13T05:40:49;100682.42;;;5.84;76.49
77323;BME280;66384;51.052;9.850;2023-02-13T05:43:19;100681.43;;;5.78;76.49
77323;BME280;66384;51.052;9.850;2023-02-13T05:45:48;100682.45;;;5.73;76.62
77323;BME280;66384;51.052;9.850;2023-02-13T05:48:19;100679.65;;;5.72;76.56
77323;BME280;66384;51.052;9.850;2023-02-13T05:50:48;100680.91;;;5.71;76.61
77323;BME280;66384;51.052;9.850;2023-02-13T05:53:17;100682.02;;;5.67;76.61
77323;BME280;66384;51.052;9.850;2023-02-13T05:55:46;100681.92;;;5.64;76.57
77323;BME280;66384;51.052;9.850;2023-02-13T05:58:16;100679.84;;;5.61;76.63
77323;BME280;66384;51.052;9.850;2023-02-13T06:00:45;100678.27;;;5.59;76.58
77323;BME280;66384;51.052;9.850;2023-02-13T06:03:15;100680.23;;;5.58;76.62
77323;BME280;66384;51.052;9.850;2023-02-13T06:05:44;100681.79;;;5.58;76.80
77323;BME280;66384;51.052;9.850;2023-02-13T06:08:14;100679.70;;;5.59;76.75
77323;BME280;66384;51.052;9.850;2023-02-13T06:10:43;100676.84;;;5.62;76.94
77323;BME280;66384;51.052;9.850;2023-02-13T06:13:12;100680.21;;;5.64;76.88
77323;BME280;66384;51.052;9.850;2023-02-13T06:15:42;100683.74;;;5.63;76.82
77323;BME280;66384;51.052;9.850;2023-02-13T06:18:11;100683.55;;;5.63;77.00
77323;BME280;66384;51.052;9.850;2023-02-13T06:20:41;100685.59;;;5.65;76.88
77323;BME280;66384;51.052;9.850;2023-02-13T06:23:10;100688.91;;;5.66;76.93
77323;BME280;66384;51.052;9.850;2023-02-13T06:25:39;100687.41;;;5.64;76.64
77323;BME280;66384;51.052;9.850;2023-02-13T06:28:08;100688.23;;;5.62;76.65
77323;BME280;66384;51.052;9.850;2023-02-13T06:30:37;100688.21;;;5.61;76.73
77323;BME280;66384;51.052;9.850;2023-02-13T06:33:07;100689.38;;;5.63;76.80
77323;BME280;66384;51.052;9.850;2023-02-13T06:35:36;100689.64;;;5.64;76.82
77323;BME280;66384;51.052;9.850;2023-02-13T06:38:05;100682.71;;;5.67;76.79
77323;BME280;66384;51.052;9.850;2023-02-13T06:40:34;100683.21;;;5.72;76.66
77323;BME280;66384;51.052;9.850;2023-02-13T06:43:04;100685.00;;;5.77;76.78
77323;BME280;66384;51.052;9.850;2023-02-13T06:45:33;100685.75;;;5.80;76.66
77323;BME280;66384;51.052;9.850;2023-02-13T06:48:02;100686.52;;;5.83;76.64
77323;BME280;66384;51.052;9.850;2023-02-13T06:50:31;100689.09;;;5.86;76.52
77323;BME280;66384;51.052;9.850;2023-02-13T06:53:01;100693.35;;;5.88;76.54
77323;BME280;66384;51.052;9.850;2023-02-13T06:55:30;100697.45;;;5.90;76.66
77323;BME280;66384;51.052;9.850;2023-02-13T06:58:00;100697.20;;;5.93;76.51
77323;BME280;66384;51.052;9.850;2023-02-13T07:00:29;100698.39;;;5.96;76.31
77323;BME280;66384;51.052;9.850;2023-02-13T07:03:04;100704.58;;;5.98;76.38
77323;BME280;66384;51.052;9.850;2023-02-13T07:05:34;100710.53;;;5.98;76.29
77323;BME280;66384;51.052;9.850;2023-02-13T07:08:03;100715.27;;;5.98;76.23
77323;BME280;66384;51.052;9.850;2023-02-13T07:10:32;100719.39;;;5.96;76.08
77323;BME280;66384;51.052;9.850;2023-02-13T07:13:01;100719.49;;;5.90;75.99
77323;BME280;66384;51.052;9.850;2023-02-13T07:15:31;100721.73;;;5.88;76.15
77323;BME280;66384;51.052;9.850;2023-02-13T07:18:00;100724.31;;;5.89;76.16
77323;BME280;66384;51.052;9.850;2023-02-13T07:20:30;100722.30;;;5.89;76.18
77323;BME280;66384;51.052;9.850;2023-02-13T07:23:00;100727.91;;;5.91;76.19
77323;BME280;66384;51.052;9.850;2023-02-13T07:25:29;100725.52;;;5.93;76.02
77323;BME280;66384;51.052;9.850;2023-02-13T07:28:02;100723.80;;;5.95;75.97
77323;BME280;66384;51.052;9.850;2023-02-13T07:30:33;100727.19;;;5.97;76.07
77323;BME280;66384;51.052;9.850;2023-02-13T07:33:03;100730.71;;;5.98;76.06
77323;BME280;66384;51.052;9.850;2023-02-13T07:35:33;100732.55;;;6.02;76.03
77323;BME280;66384;51.052;9.850;2023-02-13T07:38:03;100726.85;;;6.06;75.94
77323;BME280;66384;51.052;9.850;2023-02-13T07:40:32;100726.88;;;6.08;75.71
77323;BME280;66384;51.052;9.850;2023-02-13T07:43:01;100729.57;;;6.10;75.65
77323;BME280;66384;51.052;9.850;2023-02-13T07:45:31;100727.16;;;6.12;75.71
77323;BME280;66384;51.052;9.850;2023-02-13T07:48:00;100731.05;;;6.13;75.56
77323;BME280;66384;51.052;9.850;2023-02-13T07:50:29;100726.36;;;6.15;75.63
77323;BME280;66384;51.052;9.850;2023-02-13T07:53:00;100726.95;;;6.18;75.52
77323;BME280;66384;51.052;9.850;2023-02-13T07:55:30;100731.38;;;6.22;75.52
77323;BME280;66384;51.052;9.850;2023-02-13T07:58:00;100729.86;;;6.25;75.31
77323;BME280;66384;51.052;9.850;2023-02-13T08:00:29;100731.05;;;6.27;75.12
77323;BME280;66384;51.052;9.850;2023-02-13T08:03:00;100728.72;;;6.30;75.24
77323;BME280;66384;51.052;9.850;2023-02-13T08:05:31;100730.30;;;6.33;75.22
77323;BME280;66384;51.052;9.850;2023-02-13T08:08:01;100724.71;;;6.38;75.10
77323;BME280;66384;51.052;9.850;2023-02-13T08:10:30;100723.30;;;6.40;74.83
77323;BME280;66384;51.052;9.850;2023-02-13T08:13:17;100723.11;;;6.42;74.75
77323;BME280;66384;51.052;9.850;2023-02-13T08:15:47;100722.06;;;6.42;74.48
77323;BME280;66384;51.052;9.850;2023-02-13T08:18:16;100718.02;;;6.41;74.56
77323;BME280;66384;51.052;9.850;2023-02-13T08:20:45;100710.63;;;6.40;74.42
77323;BME280;66384;51.052;9.850;2023-02-13T08:23:15;100713.86;;;6.37;74.42
77323;BME280;66384;51.052;9.850;2023-02-13T08:25:44;100712.60;;;6.36;74.42
77323;BME280;66384;51.052;9.850;2023-02-13T08:28:17;100717.44;;;6.37;74.37
77323;BME280;66384;51.052;9.850;2023-02-13T08:30:46;100711.17;;;6.41;74.58
77323;BME280;66384;51.052;9.850;2023-02-13T08:33:15;100711.26;;;6.46;74.59
77323;BME280;66384;51.052;9.850;2023-02-13T08:35:44;100711.63;;;6.51;74.58
77323;BME280;66384;51.052;9.850;2023-02-13T08:38:13;100714.30;;;6.57;74.48
77323;BME280;66384;51.052;9.850;2023-02-13T08:40:43;100714.54;;;6.62;74.35
77323;BME280;66384;51.052;9.850;2023-02-13T08:43:12;100713.81;;;6.69;74.03
77323;BME280;66384;51.052;9.850;2023-02-13T08:45:41;100713.30;;;6.73;74.03
77323;BME280;66384;51.052;9.850;2023-02-13T08:48:10;100717.05;;;6.76;73.70
77323;BME280;66384;51.052;9.850;2023-02-13T08:50:40;100717.91;;;6.75;73.42
77323;BME280;66384;51.052;9.850;2023-02-13T08:53:09;100721.23;;;6.76;73.39
77323;BME280;66384;51.052;9.850;2023-02-13T08:55:38;100721.20;;;6.76;73.19
77323;BME280;66384;51.052;9.850;2023-02-13T08:58:07;100724.98;;;6.74;73.43
77323;BME280;66384;51.052;9.850;2023-02-13T09:00:36;100724.15;;;6.76;73.41
77323;BME280;66384;51.052;9.850;2023-02-13T09:03:06;100722.81;;;6.77;73.13
77323;BME280;66384;51.052;9.850;2023-02-13T09:05:35;100723.55;;;6.78;73.00
77323;BME280;66384;51.052;9.850;2023-02-13T09:08:04;100723.95;;;6.76;73.15
77323;BME280;66384;51.052;9.850;2023-02-13T09:10:35;100722.35;;;6.78;73.17
77323;BME280;66384;51.052;9.850;2023-02-13T09:13:04;100726.02;;;6.81;73.12
77323;BME280;66384;51.052;9.850;2023-02-13T09:15:36;100724.36;;;6.84;72.95
77323;BME280;66384;51.052;9.850;2023-02-13T09:18:06;100725.05;;;6.84;72.86
77323;BME280;66384;51.052;9.850;2023-02-13T09:20:35;100724.96;;;6.86;72.79
77323;BME280;66384;51.052;9.850;2023-02-13T09:23:04;100726.98;;;6.88;72.54
77323;BME280;66384;51.052;9.850;2023-02-13T09:25:33;100729.63;;;6.91;72.62
77323;BME280;66384;51.052;9.850;2023-02-13T09:28:03;100729.59;;;6.97;72.77
77323;BME280;66384;51.052;9.850;2023-02-13T09:30:32;100732.72;;;7.07;72.60
77323;BME280;66384;51.052;9.850;2023-02-13T09:33:01;100732.53;;;7.14;72.35
77323;BME280;66384;51.052;9.850;2023-02-13T09:35:30;100737.33;;;7.21;72.41
77323;BME280;66384;51.052;9.850;2023-02-13T09:38:01;100732.92;;;7.29;72.18
77323;BME280;66384;51.052;9.850;2023-02-13T09:40:33;100740.36;;;7.42;72.10
77323;BME280;66384;51.052;9.850;2023-02-13T09:43:12;100732.98;;;7.54;71.99
77323;BME280;66384;51.052;9.850;2023-02-13T09:45:43;100730.66;;;7.69;71.90
77323;BME280;66384;51.052;9.850;2023-02-13T09:48:21;100732.69;;;7.79;71.37
77323;BME280;66384;51.052;9.850;2023-02-13T09:50:54;100733.78;;;7.85;71.01
77323;BME280;66384;51.052;9.850;2023-02-13T09:53:25;100727.23;;;7.87;71.13
77323;BME280;66384;51.052;9.850;2023-02-13T09:56:06;100732.19;;;7.89;70.95
77323;BME280;66384;51.052;9.850;2023-02-13T09:58:42;100729.92;;;7.91;70.86
77323;BME280;66384;51.052;9.850;2023-02-13T10:01:27;100730.16;;;7.92;70.59
77323;BME280;66384;51.052;9.850;2023-02-13T10:04:13;100734.33;;;7.90;70.52
77323;BME280;66384;51.052;9.850;2023-02-13T10:06:48;100730.33;;;7.84;70.48
77323;BME280;66384;51.052;9.850;2023-02-13T10:09:28;100726.48;;;7.76;70.27
77323;BME280;66384;51.052;9.850;2023-02-13T10:12:31;100718.40;;;7.68;70.08
77323;BME280;66384;51.052;9.850;2023-02-13T10:15:16;100724.11;;;7.64;69.98
77323;BME280;66384;51.052;9.850;2023-02-13T10:17:55;100723.54;;;7.60;70.30
77323;BME280;66384;51.052;9.850;2023-02-13T10:20:30;100725.25;;;7.61;70.58
77323;BME280;66384;51.052;9.850;2023-02-13T10:23:07;100722.95;;;7.67;70.71
77323;BME280;66384;51.052;9.850;2023-02-13T10:25:45;100724.82;;;7.77;70.79
77323;BME280;66384;51.052;9.850;2023-02-13T10:28:22;100722.66;;;7.80;70.03
77323;BME280;66384;51.052;9.850;2023-02-13T10:30:58;100724.81;;;7.84;70.29
77323;BME280;66384;51.052;9.850;2023-02-13T10:33:30;100722.39;;;7.91;70.16
77323;BME280;66384;51.052;9.850;2023-02-13T10:36:06;100722.79;;;7.94;70.08
77323;BME280;66384;51.052;9.850;2023-02-13T10:38:41;100719.75;;;7.97;69.86
77323;BME280;66384;51.052;9.850;2023-02-13T10:41:24;100717.52;;;7.97;69.66
77323;BME280;66384;51.052;9.850;2023-02-13T10:44:05;100712.77;;;8.03;69.66
77323;BME280;66384;51.052;9.850;2023-02-13T10:46:45;100709.71;;;8.11;69.65
77323;BME280;66384;51.052;9.850;2023-02-13T10:49:44;100709.31;;;8.17;69.35
77323;BME280;66384;51.052;9.850;2023-02-13T10:52:23;100701.20;;;8.27;69.55
77323;BME280;66384;51.052;9.850;2023-02-13T10:55:09;100697.61;;;8.35;69.06
77323;BME280;66384;51.052;9.850;2023-02-13T10:57:59;100700.86;;;8.44;69.23
77323;BME280;66384;51.052;9.850;2023-02-13T11:00:36;100700.48;;;8.54;68.55
77323;BME280;66384;51.052;9.850;2023-02-13T11:03:16;100695.93;;;8.58;68.23
77323;BME280;66384;51.052;9.850;2023-02-13T11:05:47;100691.71;;;8.61;68.20
77323;BME280;66384;51.052;9.850;2023-02-13T11:08:21;100689.39;;;8.65;67.77
77323;BME280;66384;51.052;9.850;2023-02-13T11:10:52;100688.31;;;8.70;67.88
77323;BME280;66384;51.052;9.850;2023-02-13T11:13:23;100687.20;;;8.72;67.79
77323;BME280;66384;51.052;9.850;2023-02-13T11:16:01;100680.87;;;8.74;67.56
77323;BME280;66384;51.052;9.850;2023-02-13T11:18:32;100676.70;;;8.79;68.05
77323;BME280;66384;51.052;9.850;2023-02-13T11:21:07;100672.42;;;8.87;67.77
77323;BME280;66384;51.052;9.850;2023-02-13T11:23:43;100673.13;;;8.95;67.48
77323;BME280;66384;51.052;9.850;2023-02-13T11:26:20;100674.84;;;9.03;67.38
77323;BME280;66384;51.052;9.850;2023-02-13T11:28:52;100673.34;;;9.09;66.67
77323;BME280;66384;51.052;9.850;2023-02-13T11:31:27;100673.02;;;9.12;66.53
77323;BME280;66384;51.052;9.850;2023-02-13T11:33:58;100668.96;;;9.16;66.11
77323;BME280;66384;51.052;9.850;2023-02-13T11:36:29;100670.80;;;9.21;66.62
77323;BME280;66384;51.052;9.850;2023-02-13T11:39:01;100670.98;;;9.23;66.12
77323;BME280;66384;51.052;9.850;2023-02-13T11:41:36;100672.60;;;9.27;66.28
77323;BME280;66384;51.052;9.850;2023-02-13T11:44:16;100669.25;;;9.31;65.83
77323;BME280;66384;51.052;9.850;2023-02-13T11:46:49;100661.04;;;9.35;65.94
77323;BME280;66384;51.052;9.850;2023-02-13T11:49:20;100659.28;;;9.39;65.71
77323;BME280;66384;51.052;9.850;2023-02-13T11:51:51;100657.02;;;9.44;65.82
77323;BME280;66384;51.052;9.850;2023-02-13T11:54:31;100655.61;;;9.52;65.83
77323;BME280;66384;51.052;9.850;2023-02-13T11:57:08;100651.70;;;9.61;65.68
77323;BME280;66384;51.052;9.850;2023-02-13T11:59:47;100651.59;;;9.71;65.64
77323;BME280;66384;51.052;9.850;2023-02-13T12:02:21;100650.35;;;9.81;65.56
77323;BME280;66384;51.052;9.850;2023-02-13T12:04:52;100645.48;;;9.94;65.60
77323;BME280;66384;51.052;9.850;2023-02-13T12:07:24;100642.78;;;10.07;64.61
77323;BME280;66384;51.052;9.850;2023-02-13T12:10:01;100642.88;;;10.17;64.54
77323;BME280;66384;51.052;9.850;2023-02-13T12:12:38;100636.65;;;10.28;64.72
77323;BME280;66384;51.052;9.850;2023-02-13T12:15:18;100638.09;;;10.41;64.38
77323;BME280;66384;51.052;9.850;2023-02-13T12:17:56;100629.98;;;10.52;64.02
77323;BME280;66384;51.052;9.850;2023-02-13T12:20:28;100632.09;;;10.62;63.97
77323;BME280;66384;51.052;9.850;2023-02-13T12:23:06;100626.92;;;10.68;63.32
77323;BME280;66384;51.052;9.850;2023-02-13T12:25:51;100622.48;;;10.68;62.98
77323;BME280;66384;51.052;9.850;2023-02-13T12:28:25;100623.05;;;10.70;63.05
77323;BME280;66384;51.052;9.850;2023-02-13T12:31:06;100619.82;;;10.73;62.98
77323;BME280;66384;51.052;9.850;2023-02-13T12:34:09;100619.62;;;10.76;62.65
77323;BME280;66384;51.052;9.850;2023-02-13T12:36:53;100611.37;;;10.82;62.73
77323;BME280;66384;51.052;9.850;2023-02-13T12:39:29;100608.77;;;10.88;62.70
77323;BME280;66384;51.052;9.850;2023-02-13T12:42:15;100606.11;;;10.93;62.49
77323;BME280;66384;51.052;9.850;2023-02-13T12:45:11;100603.05;;;11.00;62.47
77323;BME280;66384;51.052;9.850;2023-02-13T12:48:00;100599.10;;;11.06;62.05
77323;BME280;66384;51.052;9.850;2023-02-13T12:50:43;100594.63;;;11.10;61.87
77323;BME280;66384;51.052;9.850;2023-02-13T12:53:36;100592.73;;;11.13;61.84
77323;BME280;66384;51.052;9.850;2023-02-13T12:56:18;100590.55;;;11.17;61.64
77323;BME280;66384;51.052;9.850;2023-02-13T12:59:08;100587.95;;;11.20;61.43
77323;BME280;66384;51.052;9.850;2023-02-13T13:04:51;100579.05;;;11.27;61.07
77323;BME280;66384;51.052;9.850;2023-02-13T13:07:38;100581.59;;;11.32;61.12
77323;BME280;66384;51.052;9.850;2023-02-13T13:10:39;100572.83;;;11.43;61.27
77323;BME280;66384;51.052;9.850;2023-02-13T13:13:20;100570.77;;;11.56;60.62
77323;BME280;66384;51.052;9.850;2023-02-13T13:15:58;100571.02;;;11.64;60.24
77323;BME280;66384;51.052;9.850;2023-02-13T13:18:39;100566.77;;;11.72;60.12
77323;BME280;66384;51.052;9.850;2023-02-13T13:21:18;100570.05;;;11.82;60.29
77323;BME280;66384;51.052;9.850;2023-02-13T13:23:53;100566.11;;;11.96;60.45
77323;BME280;66384;51.052;9.850;2023-02-13T13:26:26;100562.40;;;12.08;59.97
77323;BME280;66384;51.052;9.850;2023-02-13T13:29:00;100565.41;;;12.16;59.38
77323;BME280;66384;51.052;9.850;2023-02-13T13:31:35;100568.62;;;12.25;59.55
77323;BME280;66384;51.052;9.850;2023-02-13T13:34:07;100565.56;;;12.37;59.34
77323;BME280;66384;51.052;9.850;2023-02-13T13:36:45;100560.85;;;12.50;59.06
77323;BME280;66384;51.052;9.850;2023-02-13T13:39:23;100559.56;;;12.59;58.45
77323;BME280;66384;51.052;9.850;2023-02-13T13:42:01;100556.13;;;12.67;57.88
77323;BME280;66384;51.052;9.850;2023-02-13T13:44:48;100551.80;;;12.74;57.89